Redwood National Park, CA

7:23 PM PDT op 05 mei 2015 (GMT -0700)
MAP | | Change Station
CLOSE
Current Station
Persoonlijk weerstation
Location: McKinleyville, CA
Geometrische hoogte: 68 ft
Nabije weerstations

Hoogte 68 ft 40.88 °N, 124.07 °W | Updated 23 minutes ago

Helder
Helder
57 °F
Voelt als 57 °F
N
3
Wind Variabel Wind van zuid
Gusts 0.0 mijl/u

Vandaag
Hoog -- | Laag -- °F
--% Kans op neerslag
Gisteren
Hoog -- | Laag -- °F
Precip. -- inches
6:09 AM 8:16 PM
Afnemende maan, 96% visible
Druk 30.09 inches
Zicht 10.0 mijlen
Wolken Helder
Dauwpunt 43 °F
Vochtigheid 61%
Neerslag inches
Dikte sneeuw Niet beschikbaar.
UV 1 van de 12
Pollen 7.50 van de 12
Luchtkwaliteit Niet beschikbaar.
Flu Activity Sporadic
METAR KACV 060153Z AUTO 34014G21KT 10SM CLR 12/07 A3006 RMK AO2 SLP187 T01170067

More Conditions Fewer Conditions

Druk 30.09 inches
Zicht 10.0 mijlen
Wolken Helder
Dauwpunt 43 °F
Vochtigheid 61%
Neerslag inches
Dikte sneeuw Niet beschikbaar.
UV 1 van de 12
Pollen 7.50 van de 12
Luchtkwaliteit Niet beschikbaar.
Flu Activity Sporadic
METAR KACV 060153Z AUTO 34014G21KT 10SM CLR 12/07 A3006 RMK AO2 SLP187 T01170067

More Conditions Fewer Conditions

10-Day Weather Forecast

Almanac

Astronomie

May. 05, 2015 Opkomst Ondergang
Werkelijke tijd
Burgerlijke schemering
Nautische schemering
Astronomische schemering
Maan
Golflengte van het zichtbare licht
Daglengte
Tomorrow will be .
, % of the Moon is Illuminated

Extremen vandaag

State Highs State Lows

Community

WunderPhotos

Upload Photos

1,819,041 foto’s ge-upload!

WunderBlogs® & News

Nearby

Luchtkwaliteit

  Luchtkwaliteit LK-index Verontreinigende stof
Not available.

Dikte sneeuw

Station Depth Geometrische hoogte

Aardbevingen

Stad Distance Mag. Time & Date
Minimum magnitude displayed is 2.5.

Watertemperatuur langs de kust

Plaats Temperatuur

Stations

Nabije weerstations

Locatie station Temp. Gevoelstemperatuur Dauwpunt Vochtigheid Wind Precip. Hoogte Geactualiseerd Type